Aeroporto :
LOGIN :

Iscrizione | Disclaimer

   EN    FR    IT 

 










Sommario :    VFR   VFR Marginale   IFR   IFR Intensivo   IFR Molto Intensivo
Visibilità : 
Base nubi : 
>= 8 km
>= 3000ft
5 / 8 km
1000 / 3000 ft
1500m / 5 km
500 / 1000 ft
800 / 1500m
200 / 500 ft
< 800m
< 200 ft
Simboli :   Temporali  Nebbia  Neve Forte  Precipitazioni Forti  Vento > 20 kt
SIGMETs :   Varie  Temporali  Ghiacco  Turbolenza  Onda orograficha  Ceneri Vulcaniche







- Altitudine del aeroporto : 12 ft
- Codice IATA : BCN


LEBL - Barcelone

ULTIMO METAR :
  • 160700Z 34011KT 9999 FEW035 11/07 Q1017 NOSIG

METARs OBSOLETI :
  • 160630Z 33008KT 9999 FEW035 11/07 Q1017 NOSIG
  • 160600Z 32007KT 9999 FEW035 12/07 Q1017 NOSIG
  • 160530Z 29008KT 9999 FEW035 11/07 Q1017 NOSIG
  • 160500Z 33005KT 9999 FEW035 11/07 Q1016 NOSIG

TAF TAF LEBL
Valido dal 16 a 06 ore il 17 a 06 ore UTC


160500Z 1606/1706 34007KT 9999 FEW040 TX16/1612Z TN11/1606Z
TEMPO 1606/1610 34010G20KT
PROB40
TEMPO 1611/1615 RA BKN040
BECMG 1612/1614 25010KT
TEMPO 1619/1622 VRB04KT
BECMG 1622/1624 32012KT
Nessun NOTAM noto per questo aeroporto.



MetMap, La meteo Aeronautica in un colpo d'occhio ! - Copyright ORBIFLY Dicembre 2007 - Disclaimer

ORBIFLY MET'MAP TEAM :

Programmazione e sviluppo : Alexandra Zaïnal
Concezione e sviluppo : Baudouin d'Aumeries
Co-Programmazione e sviluppo : Marc-Olivier Méhu
Supporto tecnico e logistico : Manuel Goepfert
Aiuto per la traduzione : Arnaldo La Scala

Contatto : metmap@orbifly.com




FONTI E CREDITI :

   NOAA